sensor_id;sensor_type;location;lat;lon;timestamp;P1;durP1;ratioP1;P2;durP2;ratioP2
19643;SDS011;9970;-36.854;174.870;2023-08-21T00:01:16;6.47;;;1.87;;
19643;SDS011;9970;-36.854;174.870;2023-08-21T00:03:49;3.13;;;1.83;;
19643;SDS011;9970;-36.854;174.870;2023-08-21T00:06:22;9.00;;;4.00;;
19643;SDS011;9970;-36.854;174.870;2023-08-21T00:08:55;13.37;;;2.60;;
19643;SDS011;9970;-36.854;174.870;2023-08-21T00:11:28;5.50;;;2.37;;
19643;SDS011;9970;-36.854;174.870;2023-08-21T00:14:01;13.43;;;3.17;;
19643;SDS011;9970;-36.854;174.870;2023-08-21T00:16:34;3.90;;;2.50;;
19643;SDS011;9970;-36.854;174.870;2023-08-21T00:19:07;12.07;;;3.33;;
19643;SDS011;9970;-36.854;174.870;2023-08-21T00:21:40;5.10;;;1.53;;
19643;SDS011;9970;-36.854;174.870;2023-08-21T00:24:13;7.50;;;2.37;;
19643;SDS011;9970;-36.854;174.870;2023-08-21T00:26:47;6.70;;;2.50;;
19643;SDS011;9970;-36.854;174.870;2023-08-21T00:29:20;9.53;;;2.47;;
19643;SDS011;9970;-36.854;174.870;2023-08-21T00:31:53;7.73;;;2.00;;
19643;SDS011;9970;-36.854;174.870;2023-08-21T00:34:26;8.67;;;2.23;;
19643;SDS011;9970;-36.854;174.870;2023-08-21T00:36:59;15.73;;;3.57;;
19643;SDS011;9970;-36.854;174.870;2023-08-21T00:39:32;10.03;;;3.23;;
19643;SDS011;9970;-36.854;174.870;2023-08-21T00:42:05;5.43;;;1.90;;
19643;SDS011;9970;-36.854;174.870;2023-08-21T00:44:38;4.30;;;2.30;;
19643;SDS011;9970;-36.854;174.870;2023-08-21T00:47:11;6.90;;;2.40;;
19643;SDS011;9970;-36.854;174.870;2023-08-21T00:49:44;1.70;;;1.60;;
19643;SDS011;9970;-36.854;174.870;2023-08-21T00:52:17;4.53;;;1.70;;
19643;SDS011;9970;-36.854;174.870;2023-08-21T00:54:50;9.50;;;2.20;;
19643;SDS011;9970;-36.854;174.870;2023-08-21T00:57:23;6.60;;;2.10;;
19643;SDS011;9970;-36.854;174.870;2023-08-21T00:59:56;5.57;;;2.23;;
19643;SDS011;9970;-36.854;174.870;2023-08-21T01:02:31;8.03;;;2.70;;
19643;SDS011;9970;-36.854;174.870;2023-08-21T01:05:04;7.20;;;2.80;;
19643;SDS011;9970;-36.854;174.870;2023-08-21T01:07:57;1.83;;;1.57;;
19643;SDS011;9970;-36.854;174.870;2023-08-21T01:13:34;1.27;;;1.17;;
19643;SDS011;9970;-36.854;174.870;2023-08-21T01:16:13;1.03;;;1.00;;
19643;SDS011;9970;-36.854;174.870;2023-08-21T01:18:47;1.00;;;1.00;;
19643;SDS011;9970;-36.854;174.870;2023-08-21T01:21:20;1.97;;;1.20;;
19643;SDS011;9970;-36.854;174.870;2023-08-21T01:23:53;7.63;;;2.40;;
19643;SDS011;9970;-36.854;174.870;2023-08-21T01:26:26;9.03;;;2.37;;
19643;SDS011;9970;-36.854;174.870;2023-08-21T01:29:00;5.50;;;2.23;;
19643;SDS011;9970;-36.854;174.870;2023-08-21T01:31:33;4.03;;;2.10;;
19643;SDS011;9970;-36.854;174.870;2023-08-21T01:34:08;6.93;;;3.60;;
19643;SDS011;9970;-36.854;174.870;2023-08-21T01:36:42;6.40;;;2.60;;
19643;SDS011;9970;-36.854;174.870;2023-08-21T01:39:16;8.20;;;3.10;;
19643;SDS011;9970;-36.854;174.870;2023-08-21T01:41:50;5.33;;;2.37;;
19643;SDS011;9970;-36.854;174.870;2023-08-21T01:44:23;11.93;;;2.47;;
19643;SDS011;9970;-36.854;174.870;2023-08-21T01:46:56;7.13;;;2.53;;
19643;SDS011;9970;-36.854;174.870;2023-08-21T01:49:29;7.53;;;2.70;;
19643;SDS011;9970;-36.854;174.870;2023-08-21T01:52:02;11.03;;;3.60;;
19643;SDS011;9970;-36.854;174.870;2023-08-21T01:54:35;9.23;;;3.00;;
19643;SDS011;9970;-36.854;174.870;2023-08-21T01:57:08;15.10;;;2.63;;
19643;SDS011;9970;-36.854;174.870;2023-08-21T01:59:41;5.87;;;2.47;;
19643;SDS011;9970;-36.854;174.870;2023-08-21T02:02:14;9.80;;;2.63;;
19643;SDS011;9970;-36.854;174.870;2023-08-21T02:04:47;18.47;;;3.57;;
19643;SDS011;9970;-36.854;174.870;2023-08-21T02:07:21;10.37;;;4.40;;
19643;SDS011;9970;-36.854;174.870;2023-08-21T02:09:54;11.67;;;3.87;;
19643;SDS011;9970;-36.854;174.870;2023-08-21T02:12:27;21.40;;;4.70;;
19643;SDS011;9970;-36.854;174.870;2023-08-21T02:15:00;8.40;;;3.33;;
19643;SDS011;9970;-36.854;174.870;2023-08-21T02:17:32;7.83;;;3.13;;
19643;SDS011;9970;-36.854;174.870;2023-08-21T02:20:06;13.27;;;2.73;;
19643;SDS011;9970;-36.854;174.870;2023-08-21T02:22:39;3.60;;;2.40;;
19643;SDS011;9970;-36.854;174.870;2023-08-21T02:25:12;8.53;;;4.27;;
19643;SDS011;9970;-36.854;174.870;2023-08-21T02:27:45;9.33;;;2.53;;
19643;SDS011;9970;-36.854;174.870;2023-08-21T02:30:18;8.17;;;3.37;;
19643;SDS011;9970;-36.854;174.870;2023-08-21T02:32:53;9.73;;;2.90;;
19643;SDS011;9970;-36.854;174.870;2023-08-21T02:35:26;8.80;;;2.90;;
19643;SDS011;9970;-36.854;174.870;2023-08-21T02:37:59;6.50;;;1.80;;
19643;SDS011;9970;-36.854;174.870;2023-08-21T02:40:32;11.00;;;2.70;;
19643;SDS011;9970;-36.854;174.870;2023-08-21T02:43:05;5.97;;;1.73;;
19643;SDS011;9970;-36.854;174.870;2023-08-21T02:45:38;5.60;;;2.27;;
19643;SDS011;9970;-36.854;174.870;2023-08-21T02:48:11;15.73;;;2.90;;
19643;SDS011;9970;-36.854;174.870;2023-08-21T02:50:52;6.50;;;1.90;;
19643;SDS011;9970;-36.854;174.870;2023-08-21T02:53:25;8.20;;;2.20;;
19643;SDS011;9970;-36.854;174.870;2023-08-21T02:55:58;7.70;;;2.93;;
19643;SDS011;9970;-36.854;174.870;2023-08-21T02:58:31;7.80;;;2.37;;
19643;SDS011;9970;-36.854;174.870;2023-08-21T03:01:04;4.50;;;1.93;;
19643;SDS011;9970;-36.854;174.870;2023-08-21T03:03:37;8.00;;;2.40;;
19643;SDS011;9970;-36.854;174.870;2023-08-21T03:06:10;3.33;;;2.20;;
19643;SDS011;9970;-36.854;174.870;2023-08-21T03:08:43;3.03;;;2.10;;
19643;SDS011;9970;-36.854;174.870;2023-08-21T03:11:17;2.43;;;2.00;;
19643;SDS011;9970;-36.854;174.870;2023-08-21T03:13:50;3.10;;;2.10;;
19643;SDS011;9970;-36.854;174.870;2023-08-21T03:16:23;15.93;;;3.40;;
19643;SDS011;9970;-36.854;174.870;2023-08-21T03:18:57;8.90;;;2.60;;
19643;SDS011;9970;-36.854;174.870;2023-08-21T03:21:31;4.00;;;2.27;;
19643;SDS011;9970;-36.854;174.870;2023-08-21T03:24:05;7.30;;;2.40;;
19643;SDS011;9970;-36.854;174.870;2023-08-21T03:26:38;7.40;;;2.50;;
19643;SDS011;9970;-36.854;174.870;2023-08-21T03:29:11;2.13;;;2.03;;
19643;SDS011;9970;-36.854;174.870;2023-08-21T03:31:52;5.47;;;2.70;;
19643;SDS011;9970;-36.854;174.870;2023-08-21T03:34:25;5.13;;;2.20;;
19643;SDS011;9970;-36.854;174.870;2023-08-21T03:36:58;7.90;;;2.43;;
19643;SDS011;9970;-36.854;174.870;2023-08-21T03:39:31;6.73;;;2.07;;
19643;SDS011;9970;-36.854;174.870;2023-08-21T03:42:05;5.50;;;2.47;;
19643;SDS011;9970;-36.854;174.870;2023-08-21T03:44:39;5.00;;;2.30;;
19643;SDS011;9970;-36.854;174.870;2023-08-21T03:47:12;6.33;;;2.30;;
19643;SDS011;9970;-36.854;174.870;2023-08-21T03:49:45;4.73;;;2.30;;
19643;SDS011;9970;-36.854;174.870;2023-08-21T03:52:22;3.33;;;2.60;;
19643;SDS011;9970;-36.854;174.870;2023-08-21T03:54:55;2.97;;;1.90;;
19643;SDS011;9970;-36.854;174.870;2023-08-21T03:57:30;14.40;;;4.07;;
19643;SDS011;9970;-36.854;174.870;2023-08-21T04:00:06;17.20;;;4.30;;
19643;SDS011;9970;-36.854;174.870;2023-08-21T04:02:39;11.57;;;3.23;;
19643;SDS011;9970;-36.854;174.870;2023-08-21T04:05:12;11.37;;;3.43;;
19643;SDS011;9970;-36.854;174.870;2023-08-21T04:07:45;15.57;;;4.10;;
19643;SDS011;9970;-36.854;174.870;2023-08-21T04:10:21;9.73;;;3.50;;
19643;SDS011;9970;-36.854;174.870;2023-08-21T04:12:57;17.33;;;4.60;;
19643;SDS011;9970;-36.854;174.870;2023-08-21T04:15:31;13.73;;;4.47;;
19643;SDS011;9970;-36.854;174.870;2023-08-21T04:18:07;17.37;;;6.50;;
19643;SDS011;9970;-36.854;174.870;2023-08-21T04:20:41;6.10;;;3.53;;
19643;SDS011;9970;-36.854;174.870;2023-08-21T04:23:14;11.43;;;3.47;;
19643;SDS011;9970;-36.854;174.870;2023-08-21T04:25:47;13.20;;;4.07;;
19643;SDS011;9970;-36.854;174.870;2023-08-21T04:28:24;14.60;;;5.23;;
19643;SDS011;9970;-36.854;174.870;2023-08-21T04:30:57;20.33;;;4.53;;
19643;SDS011;9970;-36.854;174.870;2023-08-21T04:33:31;34.37;;;5.67;;
19643;SDS011;9970;-36.854;174.870;2023-08-21T04:36:05;25.50;;;4.53;;
19643;SDS011;9970;-36.854;174.870;2023-08-21T04:38:38;12.20;;;5.77;;
19643;SDS011;9970;-36.854;174.870;2023-08-21T04:41:11;20.10;;;4.43;;
19643;SDS011;9970;-36.854;174.870;2023-08-21T04:43:44;31.27;;;6.10;;
19643;SDS011;9970;-36.854;174.870;2023-08-21T04:46:17;18.67;;;4.00;;
19643;SDS011;9970;-36.854;174.870;2023-08-21T04:48:51;12.80;;;4.50;;
19643;SDS011;9970;-36.854;174.870;2023-08-21T04:51:23;25.17;;;4.80;;
19643;SDS011;9970;-36.854;174.870;2023-08-21T04:53:59;13.40;;;4.37;;
19643;SDS011;9970;-36.854;174.870;2023-08-21T04:56:32;20.17;;;5.20;;
19643;SDS011;9970;-36.854;174.870;2023-08-21T04:59:05;18.80;;;4.50;;
19643;SDS011;9970;-36.854;174.870;2023-08-21T05:01:38;13.70;;;5.07;;
19643;SDS011;9970;-36.854;174.870;2023-08-21T05:04:12;24.80;;;6.67;;
19643;SDS011;9970;-36.854;174.870;2023-08-21T05:06:45;14.60;;;5.03;;
19643;SDS011;9970;-36.854;174.870;2023-08-21T05:09:18;12.77;;;4.97;;
19643;SDS011;9970;-36.854;174.870;2023-08-21T05:11:51;14.83;;;3.83;;
19643;SDS011;9970;-36.854;174.870;2023-08-21T05:14:25;20.37;;;6.00;;
19643;SDS011;9970;-36.854;174.870;2023-08-21T05:17:03;19.30;;;5.70;;
19643;SDS011;9970;-36.854;174.870;2023-08-21T05:19:33;21.60;;;7.20;;
19643;SDS011;9970;-36.854;174.870;2023-08-21T05:22:06;26.20;;;6.53;;
19643;SDS011;9970;-36.854;174.870;2023-08-21T05:24:39;24.17;;;5.43;;
19643;SDS011;9970;-36.854;174.870;2023-08-21T05:27:12;17.33;;;4.40;;
19643;SDS011;9970;-36.854;174.870;2023-08-21T05:29:45;32.57;;;5.30;;
19643;SDS011;9970;-36.854;174.870;2023-08-21T05:32:19;27.60;;;6.60;;
19643;SDS011;9970;-36.854;174.870;2023-08-21T05:34:53;10.83;;;3.97;;
19643;SDS011;9970;-36.854;174.870;2023-08-21T05:37:26;14.40;;;4.53;;
19643;SDS011;9970;-36.854;174.870;2023-08-21T05:39:59;10.33;;;4.60;;
19643;SDS011;9970;-36.854;174.870;2023-08-21T05:42:33;17.43;;;4.73;;
19643;SDS011;9970;-36.854;174.870;2023-08-21T05:45:06;14.77;;;5.40;;
19643;SDS011;9970;-36.854;174.870;2023-08-21T05:47:40;13.67;;;4.40;;
19643;SDS011;9970;-36.854;174.870;2023-08-21T05:50:17;14.50;;;5.00;;
19643;SDS011;9970;-36.854;174.870;2023-08-21T05:52:50;17.40;;;5.43;;
19643;SDS011;9970;-36.854;174.870;2023-08-21T05:55:24;15.33;;;5.10;;
19643;SDS011;9970;-36.854;174.870;2023-08-21T05:57:57;10.30;;;4.20;;
19643;SDS011;9970;-36.854;174.870;2023-08-21T06:00:30;25.63;;;6.40;;
19643;SDS011;9970;-36.854;174.870;2023-08-21T06:03:04;19.47;;;5.67;;
19643;SDS011;9970;-36.854;174.870;2023-08-21T06:05:38;28.13;;;7.60;;
19643;SDS011;9970;-36.854;174.870;2023-08-21T06:08:11;15.90;;;4.63;;
19643;SDS011;9970;-36.854;174.870;2023-08-21T06:10:44;18.30;;;4.30;;
19643;SDS011;9970;-36.854;174.870;2023-08-21T06:13:18;18.73;;;5.53;;
19643;SDS011;9970;-36.854;174.870;2023-08-21T06:15:51;20.50;;;5.47;;
19643;SDS011;9970;-36.854;174.870;2023-08-21T06:18:24;22.17;;;5.60;;
19643;SDS011;9970;-36.854;174.870;2023-08-21T06:21:02;18.27;;;5.70;;
19643;SDS011;9970;-36.854;174.870;2023-08-21T06:23:31;19.37;;;4.43;;
19643;SDS011;9970;-36.854;174.870;2023-08-21T06:26:04;10.73;;;4.13;;
19643;SDS011;9970;-36.854;174.870;2023-08-21T06:28:40;12.63;;;4.07;;
19643;SDS011;9970;-36.854;174.870;2023-08-21T06:31:25;13.57;;;4.67;;
19643;SDS011;9970;-36.854;174.870;2023-08-21T06:34:02;12.90;;;4.83;;
19643;SDS011;9970;-36.854;174.870;2023-08-21T06:36:36;14.40;;;5.20;;
19643;SDS011;9970;-36.854;174.870;2023-08-21T06:39:44;14.90;;;3.43;;
19643;SDS011;9970;-36.854;174.870;2023-08-21T06:42:17;19.47;;;5.37;;
19643;SDS011;9970;-36.854;174.870;2023-08-21T06:44:51;10.73;;;4.00;;
19643;SDS011;9970;-36.854;174.870;2023-08-21T06:47:33;10.97;;;4.50;;
19643;SDS011;9970;-36.854;174.870;2023-08-21T06:50:09;17.03;;;5.07;;
19643;SDS011;9970;-36.854;174.870;2023-08-21T06:52:43;7.83;;;4.10;;
19643;SDS011;9970;-36.854;174.870;2023-08-21T06:55:20;12.23;;;4.23;;
19643;SDS011;9970;-36.854;174.870;2023-08-21T06:57:58;9.90;;;4.27;;
19643;SDS011;9970;-36.854;174.870;2023-08-21T07:00:34;7.83;;;4.10;;
19643;SDS011;9970;-36.854;174.870;2023-08-21T07:03:12;18.63;;;6.47;;
19643;SDS011;9970;-36.854;174.870;2023-08-21T07:05:59;15.50;;;4.40;;
19643;SDS011;9970;-36.854;174.870;2023-08-21T07:08:32;15.00;;;4.67;;
19643;SDS011;9970;-36.854;174.870;2023-08-21T07:11:09;15.50;;;4.93;;
19643;SDS011;9970;-36.854;174.870;2023-08-21T07:13:43;13.30;;;4.27;;
19643;SDS011;9970;-36.854;174.870;2023-08-21T07:16:16;11.20;;;4.40;;
19643;SDS011;9970;-36.854;174.870;2023-08-21T07:18:49;9.70;;;3.93;;
19643;SDS011;9970;-36.854;174.870;2023-08-21T07:21:24;15.43;;;3.50;;
19643;SDS011;9970;-36.854;174.870;2023-08-21T07:23:58;21.13;;;6.20;;
19643;SDS011;9970;-36.854;174.870;2023-08-21T07:26:35;15.90;;;5.37;;
19643;SDS011;9970;-36.854;174.870;2023-08-21T07:29:11;18.97;;;4.70;;
19643;SDS011;9970;-36.854;174.870;2023-08-21T07:31:44;11.33;;;3.47;;
19643;SDS011;9970;-36.854;174.870;2023-08-21T07:34:17;18.67;;;4.77;;
19643;SDS011;9970;-36.854;174.870;2023-08-21T07:36:51;14.10;;;4.20;;
19643;SDS011;9970;-36.854;174.870;2023-08-21T07:39:24;13.00;;;4.70;;
19643;SDS011;9970;-36.854;174.870;2023-08-21T07:41:58;17.93;;;5.13;;
19643;SDS011;9970;-36.854;174.870;2023-08-21T07:44:31;10.70;;;3.87;;
19643;SDS011;9970;-36.854;174.870;2023-08-21T07:47:04;12.57;;;4.07;;
19643;SDS011;9970;-36.854;174.870;2023-08-21T07:49:37;19.53;;;4.57;;
19643;SDS011;9970;-36.854;174.870;2023-08-21T07:52:10;10.47;;;3.97;;
19643;SDS011;9970;-36.854;174.870;2023-08-21T07:54:44;12.40;;;3.97;;
19643;SDS011;9970;-36.854;174.870;2023-08-21T07:57:18;13.20;;;3.50;;
19643;SDS011;9970;-36.854;174.870;2023-08-21T07:59:51;9.53;;;3.80;;
19643;SDS011;9970;-36.854;174.870;2023-08-21T08:02:24;8.67;;;2.90;;
19643;SDS011;9970;-36.854;174.870;2023-08-21T08:05:00;26.10;;;6.70;;
19643;SDS011;9970;-36.854;174.870;2023-08-21T08:07:36;22.30;;;6.30;;
19643;SDS011;9970;-36.854;174.870;2023-08-21T08:10:09;17.27;;;5.30;;
19643;SDS011;9970;-36.854;174.870;2023-08-21T08:12:42;15.03;;;3.97;;
19643;SDS011;9970;-36.854;174.870;2023-08-21T08:15:15;11.17;;;3.57;;
19643;SDS011;9970;-36.854;174.870;2023-08-21T08:17:55;10.60;;;3.30;;
19643;SDS011;9970;-36.854;174.870;2023-08-21T08:20:27;11.33;;;3.57;;
19643;SDS011;9970;-36.854;174.870;2023-08-21T08:23:00;10.07;;;4.27;;
19643;SDS011;9970;-36.854;174.870;2023-08-21T08:25:32;18.23;;;3.50;;
19643;SDS011;9970;-36.854;174.870;2023-08-21T08:28:05;5.97;;;2.33;;
19643;SDS011;9970;-36.854;174.870;2023-08-21T08:30:38;13.20;;;2.90;;
19643;SDS011;9970;-36.854;174.870;2023-08-21T08:33:11;16.17;;;4.60;;
19643;SDS011;9970;-36.854;174.870;2023-08-21T08:35:45;9.37;;;3.80;;
19643;SDS011;9970;-36.854;174.870;2023-08-21T08:38:18;7.10;;;3.13;;
19643;SDS011;9970;-36.854;174.870;2023-08-21T08:40:52;10.40;;;3.90;;
19643;SDS011;9970;-36.854;174.870;2023-08-21T08:43:26;4.60;;;3.40;;
19643;SDS011;9970;-36.854;174.870;2023-08-21T08:46:01;9.53;;;3.93;;
19643;SDS011;9970;-36.854;174.870;2023-08-21T08:48:35;9.40;;;3.23;;
19643;SDS011;9970;-36.854;174.870;2023-08-21T08:51:09;11.27;;;3.00;;
19643;SDS011;9970;-36.854;174.870;2023-08-21T08:53:42;7.20;;;3.03;;
19643;SDS011;9970;-36.854;174.870;2023-08-21T08:56:15;9.27;;;3.00;;
19643;SDS011;9970;-36.854;174.870;2023-08-21T08:58:51;6.47;;;2.83;;
19643;SDS011;9970;-36.854;174.870;2023-08-21T09:01:24;11.03;;;3.53;;
19643;SDS011;9970;-36.854;174.870;2023-08-21T09:04:04;15.17;;;4.67;;
19643;SDS011;9970;-36.854;174.870;2023-08-21T09:06:40;14.20;;;3.10;;
19643;SDS011;9970;-36.854;174.870;2023-08-21T09:09:18;4.77;;;2.27;;
19643;SDS011;9970;-36.854;174.870;2023-08-21T09:11:52;9.90;;;3.60;;
19643;SDS011;9970;-36.854;174.870;2023-08-21T09:14:28;11.53;;;4.27;;
19643;SDS011;9970;-36.854;174.870;2023-08-21T09:17:02;10.77;;;3.33;;
19643;SDS011;9970;-36.854;174.870;2023-08-21T09:19:35;10.47;;;3.60;;
19643;SDS011;9970;-36.854;174.870;2023-08-21T09:22:12;10.30;;;2.83;;
19643;SDS011;9970;-36.854;174.870;2023-08-21T09:25:04;10.03;;;3.60;;
19643;SDS011;9970;-36.854;174.870;2023-08-21T09:27:43;15.73;;;4.33;;
19643;SDS011;9970;-36.854;174.870;2023-08-21T09:30:16;6.10;;;3.23;;
19643;SDS011;9970;-36.854;174.870;2023-08-21T09:32:56;27.93;;;5.47;;
19643;SDS011;9970;-36.854;174.870;2023-08-21T09:35:33;13.67;;;3.63;;
19643;SDS011;9970;-36.854;174.870;2023-08-21T09:38:07;8.60;;;3.70;;
19643;SDS011;9970;-36.854;174.870;2023-08-21T09:40:41;8.63;;;3.50;;
19643;SDS011;9970;-36.854;174.870;2023-08-21T09:43:16;15.63;;;3.90;;
19643;SDS011;9970;-36.854;174.870;2023-08-21T09:45:50;6.70;;;2.67;;
19643;SDS011;9970;-36.854;174.870;2023-08-21T09:48:25;14.77;;;3.57;;
19643;SDS011;9970;-36.854;174.870;2023-08-21T09:50:58;14.93;;;3.40;;
19643;SDS011;9970;-36.854;174.870;2023-08-21T09:53:32;7.40;;;3.50;;
19643;SDS011;9970;-36.854;174.870;2023-08-21T09:56:06;7.20;;;3.20;;
19643;SDS011;9970;-36.854;174.870;2023-08-21T09:58:39;9.47;;;3.03;;
19643;SDS011;9970;-36.854;174.870;2023-08-21T10:01:13;6.50;;;2.97;;
19643;SDS011;9970;-36.854;174.870;2023-08-21T10:03:48;11.23;;;3.67;;
19643;SDS011;9970;-36.854;174.870;2023-08-21T10:06:22;9.93;;;3.23;;
19643;SDS011;9970;-36.854;174.870;2023-08-21T10:08:56;14.03;;;2.70;;
19643;SDS011;9970;-36.854;174.870;2023-08-21T10:11:29;6.47;;;3.07;;
19643;SDS011;9970;-36.854;174.870;2023-08-21T10:14:03;6.10;;;2.80;;
19643;SDS011;9970;-36.854;174.870;2023-08-21T10:16:40;7.60;;;3.10;;
19643;SDS011;9970;-36.854;174.870;2023-08-21T10:19:19;9.53;;;5.53;;
19643;SDS011;9970;-36.854;174.870;2023-08-21T10:21:48;7.20;;;2.90;;
19643;SDS011;9970;-36.854;174.870;2023-08-21T10:24:27;3.70;;;2.80;;
19643;SDS011;9970;-36.854;174.870;2023-08-21T10:27:06;6.90;;;2.97;;
19643;SDS011;9970;-36.854;174.870;2023-08-21T10:29:39;11.20;;;2.80;;
19643;SDS011;9970;-36.854;174.870;2023-08-21T10:32:16;14.77;;;3.67;;
19643;SDS011;9970;-36.854;174.870;2023-08-21T10:34:52;16.77;;;3.20;;
19643;SDS011;9970;-36.854;174.870;2023-08-21T10:37:25;9.53;;;2.90;;
19643;SDS011;9970;-36.854;174.870;2023-08-21T10:39:59;6.57;;;3.30;;
19643;SDS011;9970;-36.854;174.870;2023-08-21T10:42:39;10.93;;;3.20;;
19643;SDS011;9970;-36.854;174.870;2023-08-21T10:45:12;9.47;;;3.20;;
19643;SDS011;9970;-36.854;174.870;2023-08-21T10:47:46;14.50;;;3.50;;
19643;SDS011;9970;-36.854;174.870;2023-08-21T10:50:20;12.37;;;3.03;;
19643;SDS011;9970;-36.854;174.870;2023-08-21T10:52:58;12.13;;;3.23;;
19643;SDS011;9970;-36.854;174.870;2023-08-21T10:55:27;5.27;;;3.37;;
19643;SDS011;9970;-36.854;174.870;2023-08-21T10:58:00;9.63;;;2.77;;
19643;SDS011;9970;-36.854;174.870;2023-08-21T11:00:33;6.20;;;2.60;;
19643;SDS011;9970;-36.854;174.870;2023-08-21T11:03:06;5.97;;;2.50;;
19643;SDS011;9970;-36.854;174.870;2023-08-21T11:05:39;9.43;;;2.63;;
19643;SDS011;9970;-36.854;174.870;2023-08-21T11:08:12;15.43;;;3.93;;
19643;SDS011;9970;-36.854;174.870;2023-08-21T11:10:46;4.90;;;2.80;;
19643;SDS011;9970;-36.854;174.870;2023-08-21T11:13:19;15.43;;;2.87;;
19643;SDS011;9970;-36.854;174.870;2023-08-21T11:15:59;5.70;;;2.83;;
19643;SDS011;9970;-36.854;174.870;2023-08-21T11:18:35;7.13;;;2.67;;
19643;SDS011;9970;-36.854;174.870;2023-08-21T11:21:09;8.27;;;3.13;;
19643;SDS011;9970;-36.854;174.870;2023-08-21T11:23:43;6.83;;;2.80;;
19643;SDS011;9970;-36.854;174.870;2023-08-21T11:26:15;10.60;;;3.97;;
19643;SDS011;9970;-36.854;174.870;2023-08-21T11:28:49;12.50;;;2.60;;
19643;SDS011;9970;-36.854;174.870;2023-08-21T11:31:22;9.17;;;2.60;;
19643;SDS011;9970;-36.854;174.870;2023-08-21T11:33:55;6.10;;;2.83;;
19643;SDS011;9970;-36.854;174.870;2023-08-21T11:36:29;10.60;;;2.80;;
19643;SDS011;9970;-36.854;174.870;2023-08-21T11:39:02;4.00;;;2.33;;
19643;SDS011;9970;-36.854;174.870;2023-08-21T11:41:54;5.43;;;2.90;;
19643;SDS011;9970;-36.854;174.870;2023-08-21T11:44:28;9.50;;;2.27;;
19643;SDS011;9970;-36.854;174.870;2023-08-21T11:47:01;9.00;;;2.43;;
19643;SDS011;9970;-36.854;174.870;2023-08-21T11:49:40;4.80;;;1.80;;
19643;SDS011;9970;-36.854;174.870;2023-08-21T11:52:11;9.10;;;2.40;;
19643;SDS011;9970;-36.854;174.870;2023-08-21T11:54:46;8.60;;;3.70;;
19643;SDS011;9970;-36.854;174.870;2023-08-21T11:57:26;7.07;;;3.53;;
19643;SDS011;9970;-36.854;174.870;2023-08-21T11:59:59;8.57;;;4.30;;
19643;SDS011;9970;-36.854;174.870;2023-08-21T12:02:33;4.83;;;2.70;;
19643;SDS011;9970;-36.854;174.870;2023-08-21T12:05:07;5.50;;;2.43;;
19643;SDS011;9970;-36.854;174.870;2023-08-21T12:07:42;1.87;;;1.77;;
19643;SDS011;9970;-36.854;174.870;2023-08-21T12:10:25;16.37;;;2.73;;
19643;SDS011;9970;-36.854;174.870;2023-08-21T12:12:59;4.43;;;1.87;;
19643;SDS011;9970;-36.854;174.870;2023-08-21T12:15:32;5.40;;;2.00;;
19643;SDS011;9970;-36.854;174.870;2023-08-21T12:18:05;7.03;;;2.30;;
19643;SDS011;9970;-36.854;174.870;2023-08-21T12:20:38;4.17;;;2.20;;
19643;SDS011;9970;-36.854;174.870;2023-08-21T12:23:11;10.57;;;3.07;;
19643;SDS011;9970;-36.854;174.870;2023-08-21T12:25:44;6.63;;;2.40;;
19643;SDS011;9970;-36.854;174.870;2023-08-21T12:28:17;9.20;;;2.33;;
19643;SDS011;9970;-36.854;174.870;2023-08-21T12:30:50;5.07;;;2.03;;
19643;SDS011;9970;-36.854;174.870;2023-08-21T12:33:23;5.70;;;2.50;;
19643;SDS011;9970;-36.854;174.870;2023-08-21T12:35:56;8.60;;;3.50;;
19643;SDS011;9970;-36.854;174.870;2023-08-21T12:38:32;3.60;;;2.07;;
19643;SDS011;9970;-36.854;174.870;2023-08-21T12:41:04;4.70;;;2.20;;
19643;SDS011;9970;-36.854;174.870;2023-08-21T12:43:38;2.50;;;1.60;;
19643;SDS011;9970;-36.854;174.870;2023-08-21T12:46:11;7.43;;;2.57;;
19643;SDS011;9970;-36.854;174.870;2023-08-21T12:48:44;6.80;;;2.03;;
19643;SDS011;9970;-36.854;174.870;2023-08-21T12:51:17;3.80;;;2.47;;
19643;SDS011;9970;-36.854;174.870;2023-08-21T12:53:51;6.47;;;2.20;;
19643;SDS011;9970;-36.854;174.870;2023-08-21T12:56:24;2.60;;;1.93;;
19643;SDS011;9970;-36.854;174.870;2023-08-21T12:58:57;13.40;;;2.00;;
19643;SDS011;9970;-36.854;174.870;2023-08-21T13:01:30;9.07;;;1.57;;
19643;SDS011;9970;-36.854;174.870;2023-08-21T13:04:04;3.70;;;2.53;;
19643;SDS011;9970;-36.854;174.870;2023-08-21T13:06:37;5.63;;;1.77;;
19643;SDS011;9970;-36.854;174.870;2023-08-21T13:09:10;2.83;;;2.73;;
19643;SDS011;9970;-36.854;174.870;2023-08-21T13:11:43;6.93;;;2.50;;
19643;SDS011;9970;-36.854;174.870;2023-08-21T13:14:16;7.10;;;3.20;;
19643;SDS011;9970;-36.854;174.870;2023-08-21T13:16:49;7.80;;;3.10;;
19643;SDS011;9970;-36.854;174.870;2023-08-21T13:19:23;7.70;;;2.43;;
19643;SDS011;9970;-36.854;174.870;2023-08-21T13:21:56;9.97;;;3.20;;
19643;SDS011;9970;-36.854;174.870;2023-08-21T13:24:30;4.10;;;2.50;;
19643;SDS011;9970;-36.854;174.870;2023-08-21T13:27:03;7.23;;;2.63;;
19643;SDS011;9970;-36.854;174.870;2023-08-21T13:29:35;1.87;;;1.77;;
19643;SDS011;9970;-36.854;174.870;2023-08-21T13:32:09;5.67;;;2.70;;
19643;SDS011;9970;-36.854;174.870;2023-08-21T13:34:42;9.27;;;3.03;;
19643;SDS011;9970;-36.854;174.870;2023-08-21T13:37:15;8.60;;;2.90;;
19643;SDS011;9970;-36.854;174.870;2023-08-21T13:39:48;5.00;;;3.10;;
19643;SDS011;9970;-36.854;174.870;2023-08-21T13:42:21;7.10;;;2.10;;
19643;SDS011;9970;-36.854;174.870;2023-08-21T13:44:54;11.37;;;2.40;;
19643;SDS011;9970;-36.854;174.870;2023-08-21T13:47:30;8.40;;;3.30;;
19643;SDS011;9970;-36.854;174.870;2023-08-21T13:50:04;6.10;;;2.30;;
19643;SDS011;9970;-36.854;174.870;2023-08-21T13:52:38;2.63;;;2.43;;
19643;SDS011;9970;-36.854;174.870;2023-08-21T13:55:10;7.43;;;2.90;;
19643;SDS011;9970;-36.854;174.870;2023-08-21T13:57:45;12.90;;;3.20;;
19643;SDS011;9970;-36.854;174.870;2023-08-21T14:00:18;8.50;;;2.57;;
19643;SDS011;9970;-36.854;174.870;2023-08-21T14:02:54;7.10;;;3.10;;
19643;SDS011;9970;-36.854;174.870;2023-08-21T14:05:27;13.47;;;4.43;;
19643;SDS011;9970;-36.854;174.870;2023-08-21T14:08:00;2.40;;;2.03;;
19643;SDS011;9970;-36.854;174.870;2023-08-21T14:10:33;1.80;;;1.70;;
19643;SDS011;9970;-36.854;174.870;2023-08-21T14:13:07;8.40;;;2.40;;
19643;SDS011;9970;-36.854;174.870;2023-08-21T14:15:39;10.37;;;2.87;;
19643;SDS011;9970;-36.854;174.870;2023-08-21T14:18:12;2.80;;;2.60;;
19643;SDS011;9970;-36.854;174.870;2023-08-21T14:20:46;16.00;;;4.10;;
19643;SDS011;9970;-36.854;174.870;2023-08-21T14:23:20;5.77;;;2.77;;
19643;SDS011;9970;-36.854;174.870;2023-08-21T14:25:52;7.47;;;2.67;;
19643;SDS011;9970;-36.854;174.870;2023-08-21T14:28:25;3.70;;;3.03;;
19643;SDS011;9970;-36.854;174.870;2023-08-21T14:30:58;2.10;;;1.50;;
19643;SDS011;9970;-36.854;174.870;2023-08-21T14:33:31;5.17;;;2.43;;
19643;SDS011;9970;-36.854;174.870;2023-08-21T14:36:04;3.80;;;2.20;;
19643;SDS011;9970;-36.854;174.870;2023-08-21T14:38:38;2.47;;;1.80;;
19643;SDS011;9970;-36.854;174.870;2023-08-21T14:41:12;8.23;;;2.80;;
19643;SDS011;9970;-36.854;174.870;2023-08-21T14:43:45;14.00;;;4.87;;
19643;SDS011;9970;-36.854;174.870;2023-08-21T14:46:18;2.70;;;2.23;;
19643;SDS011;9970;-36.854;174.870;2023-08-21T14:48:52;8.60;;;3.27;;
19643;SDS011;9970;-36.854;174.870;2023-08-21T14:51:25;7.93;;;3.10;;
19643;SDS011;9970;-36.854;174.870;2023-08-21T14:53:58;2.27;;;1.83;;
19643;SDS011;9970;-36.854;174.870;2023-08-21T14:56:30;2.80;;;1.87;;
19643;SDS011;9970;-36.854;174.870;2023-08-21T14:59:04;4.07;;;2.30;;